createdAt,value
2017-07-04T00:00:36.221Z,85.00
2017-07-04T00:03:04.421Z,85.40
2017-07-04T00:05:32.665Z,86.10
2017-07-04T00:08:00.855Z,86.90
2017-07-04T00:10:29.853Z,87.90
2017-07-04T00:12:58.865Z,88.50
2017-07-04T00:15:27.100Z,88.50
2017-07-04T00:17:55.296Z,87.20
2017-07-04T00:20:24.279Z,86.70
2017-07-04T00:22:52.474Z,86.70
2017-07-04T00:25:20.678Z,87.00
2017-07-04T00:27:48.900Z,86.60
2017-07-04T00:30:17.085Z,86.50
2017-07-04T00:32:46.048Z,85.80
2017-07-04T00:35:14.267Z,85.80
2017-07-04T00:37:42.441Z,85.70
2017-07-04T00:40:11.391Z,86.00
2017-07-04T00:42:39.607Z,86.00
2017-07-04T00:45:08.558Z,85.00
2017-07-04T00:47:36.745Z,84.80
2017-07-04T00:50:04.987Z,84.70
2017-07-04T00:52:33.174Z,84.80
2017-07-04T00:55:01.383Z,84.90
2017-07-04T00:57:30.383Z,85.20
2017-07-04T00:59:58.583Z,85.00
2017-07-04T01:02:26.779Z,85.40
2017-07-04T01:04:54.974Z,85.30
2017-07-04T01:07:23.158Z,86.10
2017-07-04T01:09:51.339Z,85.20
2017-07-04T01:12:19.559Z,85.00
2017-07-04T01:14:47.785Z,85.10
2017-07-04T01:17:15.952Z,84.50
2017-07-04T01:19:44.174Z,85.00
2017-07-04T01:22:12.372Z,84.70
2017-07-04T01:24:40.559Z,84.70
2017-07-04T01:27:08.765Z,85.00
2017-07-04T01:29:36.938Z,85.10
2017-07-04T01:32:05.120Z,84.30
2017-07-04T01:34:33.339Z,83.70
2017-07-04T01:37:01.532Z,83.60
2017-07-04T01:39:29.697Z,83.30
2017-07-04T01:41:57.930Z,83.60
2017-07-04T01:44:26.912Z,83.90
2017-07-04T01:46:55.095Z,83.10
2017-07-04T01:49:23.316Z,83.00
2017-07-04T01:51:51.517Z,82.80
2017-07-04T01:54:19.704Z,82.50
2017-07-04T01:56:47.913Z,82.40
2017-07-04T01:59:16.108Z,82.90
2017-07-04T02:01:44.281Z,82.10
2017-07-04T02:04:12.501Z,81.50
2017-07-04T02:06:40.702Z,81.20
2017-07-04T02:09:09.679Z,80.60
2017-07-04T02:11:37.881Z,80.80
2017-07-04T02:14:06.812Z,81.00
2017-07-04T02:16:35.017Z,81.00
2017-07-04T02:19:03.247Z,80.70
2017-07-04T02:21:31.450Z,82.00
2017-07-04T02:23:59.639Z,81.30
2017-07-04T02:26:27.851Z,81.10
2017-07-04T02:28:56.821Z,80.50
2017-07-04T02:31:25.007Z,80.50
2017-07-04T02:33:53.258Z,80.30
2017-07-04T02:36:21.448Z,79.60
2017-07-04T02:38:49.613Z,79.60
2017-07-04T02:41:17.812Z,79.30
2017-07-04T02:43:46.018Z,79.50
2017-07-04T02:46:14.231Z,80.20
2017-07-04T02:48:42.475Z,80.00
2017-07-04T02:51:10.773Z,80.30
2017-07-04T02:53:39.001Z,80.20
2017-07-04T02:56:07.985Z,80.00
2017-07-04T02:58:36.172Z,80.00
2017-07-04T03:01:05.124Z,80.10
2017-07-04T03:03:33.339Z,80.10
2017-07-04T03:06:02.276Z,80.40
2017-07-04T03:08:30.472Z,80.40
2017-07-04T03:10:58.669Z,80.50
2017-07-04T03:13:27.647Z,80.10
2017-07-04T03:15:55.850Z,80.00
2017-07-04T03:18:24.871Z,79.30
2017-07-04T03:20:53.063Z,79.30
2017-07-04T03:23:21.270Z,79.50
2017-07-04T03:25:49.476Z,79.30
2017-07-04T03:28:18.428Z,79.30
2017-07-04T03:30:46.612Z,79.30
2017-07-04T03:33:14.829Z,78.90
2017-07-04T03:35:43.006Z,78.50
2017-07-04T03:38:11.211Z,77.90
2017-07-04T03:40:39.423Z,78.40
2017-07-04T03:43:07.596Z,77.40
2017-07-04T03:45:36.538Z,77.20
2017-07-04T03:48:04.747Z,77.10
2017-07-04T03:50:32.927Z,76.80
2017-07-04T03:53:01.096Z,76.40
2017-07-04T03:55:29.316Z,76.00
2017-07-04T03:57:57.494Z,76.70
2017-07-04T04:00:25.690Z,76.40
2017-07-04T04:02:53.934Z,76.50
2017-07-04T04:05:22.137Z,76.50
2017-07-04T04:07:50.339Z,75.80
2017-07-04T04:10:18.578Z,76.10
2017-07-04T04:12:46.781Z,76.00
2017-07-04T04:15:15.002Z,74.70
2017-07-04T04:17:43.992Z,75.50
2017-07-04T04:20:12.169Z,74.60
2017-07-04T04:22:41.133Z,73.90
2017-07-04T04:25:09.333Z,73.70
2017-07-04T04:27:37.539Z,73.50
2017-07-04T04:30:05.728Z,73.10
2017-07-04T04:32:33.956Z,72.90
2017-07-04T04:35:02.917Z,72.10
2017-07-04T04:37:31.085Z,72.00
2017-07-04T04:39:59.321Z,71.30
2017-07-04T04:42:27.495Z,71.30
2017-07-04T04:44:55.709Z,70.50
2017-07-04T04:47:23.927Z,69.20
2017-07-04T04:49:52.136Z,69.50
2017-07-04T04:52:20.309Z,69.40
2017-07-04T04:54:48.537Z,69.00
2017-07-04T04:57:16.729Z,68.80
2017-07-04T04:59:44.944Z,68.40
2017-07-04T05:02:13.159Z,68.10
2017-07-04T05:04:41.365Z,67.80
2017-07-04T05:07:09.569Z,67.70
2017-07-04T05:09:37.812Z,67.10
2017-07-04T05:12:06.765Z,66.30
2017-07-04T05:14:34.958Z,66.30
2017-07-04T05:17:03.208Z,65.90
2017-07-04T05:19:31.404Z,65.80
2017-07-04T05:21:59.577Z,65.10
2017-07-04T05:24:27.815Z,65.00
2017-07-04T05:26:56.012Z,64.40
2017-07-04T05:29:24.181Z,64.30
2017-07-04T05:31:52.409Z,63.60
2017-07-04T05:34:20.628Z,63.10
2017-07-04T05:36:48.808Z,62.00
2017-07-04T05:39:17.055Z,62.30
2017-07-04T05:41:45.275Z,62.20
2017-07-04T05:44:13.448Z,62.80
2017-07-04T05:46:41.679Z,62.00
2017-07-04T05:49:10.699Z,60.80
2017-07-04T05:51:38.886Z,59.80
2017-07-04T05:54:07.122Z,59.70
2017-07-04T05:56:35.308Z,59.40
2017-07-04T05:59:03.504Z,59.30
2017-07-04T06:01:31.707Z,58.20
2017-07-04T06:03:59.923Z,58.20
2017-07-04T06:06:28.090Z,58.50
2017-07-04T06:08:57.076Z,57.80
2017-07-04T06:11:26.040Z,57.10
2017-07-04T06:13:54.222Z,57.10
2017-07-04T06:16:22.453Z,56.10
2017-07-04T06:18:50.848Z,56.80
2017-07-04T06:21:19.129Z,56.80
2017-07-04T06:23:47.351Z,56.50
2017-07-04T06:26:15.573Z,56.20
2017-07-04T06:28:43.753Z,56.00
2017-07-04T06:31:11.965Z,56.40
2017-07-04T06:33:40.927Z,54.60
2017-07-04T06:36:09.116Z,54.60
2017-07-04T06:38:37.327Z,53.20
2017-07-04T06:41:06.281Z,52.30
2017-07-04T06:43:34.449Z,52.20
2017-07-04T06:46:02.645Z,53.00
2017-07-04T06:48:30.848Z,53.00
2017-07-04T06:50:59.043Z,53.60
2017-07-04T06:53:27.256Z,52.80
2017-07-04T06:55:55.469Z,53.20
2017-07-04T06:58:24.422Z,53.50
2017-07-04T07:00:52.661Z,52.90
2017-07-04T07:03:20.869Z,53.10
2017-07-04T07:05:49.078Z,52.00
2017-07-04T07:08:18.068Z,52.40
2017-07-04T07:10:46.264Z,52.10
2017-07-04T07:13:14.439Z,52.10
2017-07-04T07:15:42.653Z,51.70
2017-07-04T07:18:10.830Z,51.30
2017-07-04T07:20:39.002Z,51.60
2017-07-04T07:23:07.223Z,50.40
2017-07-04T07:25:36.180Z,50.70
2017-07-04T07:28:04.372Z,50.70
2017-07-04T07:30:32.581Z,51.30
2017-07-04T07:33:00.763Z,51.20
2017-07-04T07:35:28.951Z,51.70
2017-07-04T07:37:57.167Z,52.30
2017-07-04T07:40:25.337Z,52.30
2017-07-04T07:42:53.528Z,52.60
2017-07-04T07:45:21.729Z,52.60
2017-07-04T07:47:50.687Z,53.90
2017-07-04T07:50:18.876Z,54.00
2017-07-04T07:52:47.081Z,54.10
2017-07-04T07:55:15.264Z,54.80
2017-07-04T07:57:43.463Z,54.90
2017-07-04T08:00:11.697Z,55.20
2017-07-04T08:02:40.666Z,51.60
2017-07-04T08:05:08.872Z,51.60
2017-07-04T08:07:37.105Z,49.30
2017-07-04T08:10:05.326Z,48.50
2017-07-04T08:12:33.502Z,47.30
2017-07-04T08:15:01.743Z,46.80
2017-07-04T08:17:29.922Z,46.70
2017-07-04T08:19:58.112Z,46.00
2017-07-04T08:22:27.111Z,44.50
2017-07-04T08:24:55.330Z,44.50
2017-07-04T08:27:23.553Z,43.40
2017-07-04T08:29:52.562Z,42.00
2017-07-04T08:32:20.734Z,42.00
2017-07-04T08:34:48.942Z,41.50
2017-07-04T08:37:17.181Z,42.30
2017-07-04T08:39:46.135Z,43.70
2017-07-04T08:42:14.322Z,43.70
2017-07-04T08:44:42.526Z,43.60
2017-07-04T08:47:10.735Z,45.10
2017-07-04T08:49:38.931Z,43.20
2017-07-04T08:52:07.164Z,44.20
2017-07-04T08:54:35.342Z,45.60
2017-07-04T08:57:03.516Z,45.20
2017-07-04T08:59:31.754Z,46.10
2017-07-04T09:01:59.949Z,44.90
2017-07-04T09:04:28.907Z,43.00
2017-07-04T09:06:57.131Z,43.00
2017-07-04T09:09:25.297Z,43.40
2017-07-04T09:11:53.483Z,44.30
2017-07-04T09:14:21.716Z,43.40
2017-07-04T09:16:49.923Z,43.70
2017-07-04T09:19:18.111Z,43.60
2017-07-04T09:21:46.331Z,43.30
2017-07-04T09:24:14.523Z,42.10
2017-07-04T09:26:42.715Z,40.10
2017-07-04T09:29:11.706Z,37.50
2017-07-04T09:31:40.648Z,38.20
2017-07-04T09:34:08.855Z,38.20
2017-07-04T09:36:37.075Z,39.30
2017-07-04T09:39:05.263Z,39.30
2017-07-04T09:41:33.449Z,36.70
2017-07-04T09:44:01.672Z,34.60
2017-07-04T09:46:30.635Z,35.60
2017-07-04T09:48:58.824Z,35.60
2017-07-04T09:51:27.075Z,36.40
2017-07-04T09:53:55.276Z,36.20
2017-07-04T09:56:23.486Z,35.60
2017-07-04T09:58:51.694Z,34.80
2017-07-04T10:01:19.869Z,34.30
2017-07-04T10:03:48.064Z,35.90
2017-07-04T10:06:16.310Z,37.20
2017-07-04T10:08:44.510Z,37.00
2017-07-04T10:11:12.696Z,37.50
2017-07-04T10:13:40.939Z,37.60
2017-07-04T10:16:09.118Z,37.60
2017-07-04T10:18:37.328Z,36.60
2017-07-04T10:21:05.557Z,34.90
2017-07-04T10:23:33.747Z,34.40
2017-07-04T10:26:01.967Z,32.00
2017-07-04T10:28:30.950Z,32.00
2017-07-04T10:30:59.129Z,32.00
2017-07-04T10:33:28.099Z,30.00
2017-07-04T10:35:56.348Z,29.90
2017-07-04T10:38:24.573Z,29.50
2017-07-04T10:40:52.763Z,25.80
2017-07-04T10:43:20.958Z,25.40
2017-07-04T10:45:49.150Z,24.30
2017-07-04T10:48:18.353Z,25.50
2017-07-04T10:50:46.601Z,27.50
2017-07-04T10:53:14.793Z,30.00
2017-07-04T10:55:42.987Z,32.20
2017-07-04T10:58:11.198Z,33.80
2017-07-04T11:00:40.182Z,31.70
2017-07-04T11:03:08.370Z,31.10
2017-07-04T11:05:36.595Z,31.20
2017-07-04T11:08:04.803Z,30.90
2017-07-04T11:10:32.982Z,30.30
2017-07-04T11:13:01.221Z,29.60
2017-07-04T11:15:29.416Z,30.80
2017-07-04T11:17:57.597Z,31.70
2017-07-04T11:20:25.823Z,31.80
2017-07-04T11:22:54.018Z,33.50
2017-07-04T11:25:22.212Z,34.00
2017-07-04T11:27:50.440Z,33.30
2017-07-04T11:30:19.414Z,35.10
2017-07-04T11:32:47.622Z,35.00
2017-07-04T11:35:15.862Z,35.70
2017-07-04T11:37:44.056Z,36.30
2017-07-04T11:40:13.028Z,37.30
2017-07-04T11:42:41.247Z,37.30
2017-07-04T11:45:09.444Z,36.00
2017-07-04T11:47:37.631Z,33.50
2017-07-04T11:50:05.866Z,32.70
2017-07-04T11:52:34.055Z,32.50
2017-07-04T11:55:02.244Z,33.50
2017-07-04T11:57:30.484Z,34.60
2017-07-04T11:59:59.458Z,36.90
2017-07-04T12:02:27.630Z,36.90
2017-07-04T12:04:55.845Z,37.60
2017-07-04T12:07:24.062Z,37.30
2017-07-04T12:09:52.260Z,37.60
2017-07-04T12:12:20.473Z,36.50
2017-07-04T12:14:48.654Z,33.90
2017-07-04T12:17:16.857Z,33.10
2017-07-04T12:19:45.083Z,32.40
2017-07-04T12:22:13.272Z,34.80
2017-07-04T12:24:41.458Z,35.60
2017-07-04T12:27:09.702Z,35.60
2017-07-04T12:29:38.663Z,37.10
2017-07-04T12:32:06.867Z,37.10
2017-07-04T12:34:35.858Z,38.60
2017-07-04T12:37:04.839Z,39.00
2017-07-04T12:39:33.031Z,38.90
2017-07-04T12:42:02.015Z,40.10
2017-07-04T12:44:30.976Z,40.30
2017-07-04T12:46:59.186Z,40.20
2017-07-04T12:49:28.182Z,40.90
2017-07-04T12:51:57.145Z,40.10
2017-07-04T12:54:25.347Z,40.10
2017-07-04T12:56:54.344Z,39.00
2017-07-04T12:59:23.310Z,39.70
2017-07-04T13:01:51.528Z,39.70
2017-07-04T13:04:19.769Z,39.60
2017-07-04T13:06:47.941Z,39.70
2017-07-04T13:09:16.134Z,40.10
2017-07-04T13:11:45.131Z,38.80
2017-07-04T13:14:14.094Z,38.40
2017-07-04T13:16:42.277Z,38.40
2017-07-04T13:19:10.512Z,39.90
2017-07-04T13:21:38.703Z,39.00
2017-07-04T13:24:06.895Z,38.60
2017-07-04T13:26:35.120Z,36.80
2017-07-04T13:29:03.331Z,37.00
2017-07-04T13:31:31.525Z,37.90
2017-07-04T13:33:59.763Z,40.40
2017-07-04T13:36:27.987Z,41.40
2017-07-04T13:38:56.198Z,42.70
2017-07-04T13:41:24.408Z,42.60
2017-07-04T13:43:52.594Z,41.60
2017-07-04T13:46:20.807Z,40.20
2017-07-04T13:48:49.811Z,38.40
2017-07-04T13:51:18.009Z,38.40
2017-07-04T13:53:46.211Z,39.20
2017-07-04T13:56:14.464Z,37.70
2017-07-04T13:58:42.674Z,38.00
2017-07-04T14:01:10.863Z,38.40
2017-07-04T14:03:39.092Z,36.30
2017-07-04T14:06:07.299Z,36.40
2017-07-04T14:08:35.487Z,38.30
2017-07-04T14:11:03.741Z,39.60
2017-07-04T14:13:31.932Z,38.60
2017-07-04T14:16:00.140Z,39.90
2017-07-04T14:18:29.129Z,37.50
2017-07-04T14:20:57.338Z,37.50
2017-07-04T14:23:25.532Z,37.50
2017-07-04T14:25:53.768Z,37.30
2017-07-04T14:28:21.971Z,38.20
2017-07-04T14:30:50.150Z,36.80
2017-07-04T14:33:18.376Z,37.20
2017-07-04T14:35:46.611Z,39.40
2017-07-04T14:38:14.888Z,39.30
2017-07-04T14:40:43.122Z,38.00
2017-07-04T14:43:11.312Z,39.30
2017-07-04T14:45:39.481Z,38.80
2017-07-04T14:48:07.698Z,38.40
2017-07-04T14:50:35.882Z,39.30
2017-07-04T14:53:04.091Z,39.80
2017-07-04T14:55:33.083Z,41.00
2017-07-04T14:58:02.039Z,40.90
2017-07-04T15:00:30.229Z,40.90
2017-07-04T15:02:58.437Z,40.30
2017-07-04T15:05:26.650Z,39.60
2017-07-04T15:07:54.818Z,40.10
2017-07-04T15:10:23.029Z,41.40
2017-07-04T15:12:51.201Z,41.40
2017-07-04T15:15:19.365Z,41.70
2017-07-04T15:17:47.606Z,42.20
2017-07-04T15:20:15.800Z,42.00
2017-07-04T15:22:43.984Z,41.60
2017-07-04T15:25:12.240Z,41.10
2017-07-04T15:27:40.433Z,41.20
2017-07-04T15:30:08.606Z,41.80
2017-07-04T15:32:36.818Z,41.80
2017-07-04T15:35:05.032Z,41.90
2017-07-04T15:37:33.233Z,41.70
2017-07-04T15:40:01.437Z,42.20
2017-07-04T15:42:30.399Z,43.00
2017-07-04T15:44:58.574Z,42.90
2017-07-04T15:47:26.821Z,43.40
2017-07-04T15:49:55.030Z,42.10
2017-07-04T15:52:23.205Z,41.50
2017-07-04T15:54:51.440Z,41.60
2017-07-04T15:57:19.633Z,41.20
2017-07-04T15:59:47.816Z,41.80
2017-07-04T16:02:16.027Z,41.60
2017-07-04T16:04:44.283Z,41.90
2017-07-04T16:07:12.437Z,42.00
2017-07-04T16:09:40.650Z,41.40
2017-07-04T16:12:09.597Z,43.10
2017-07-04T16:14:37.788Z,42.50
2017-07-04T16:17:05.989Z,42.10
2017-07-04T16:19:34.179Z,42.10
2017-07-04T16:22:03.141Z,41.80
2017-07-04T16:24:31.380Z,41.40
2017-07-04T16:26:59.587Z,41.20
2017-07-04T16:29:27.775Z,42.30
2017-07-04T16:31:56.002Z,43.10
2017-07-04T16:34:24.217Z,43.10
2017-07-04T16:36:52.394Z,42.20
2017-07-04T16:39:20.602Z,42.40
2017-07-04T16:41:49.559Z,42.80
2017-07-04T16:44:17.744Z,42.10
2017-07-04T16:46:45.961Z,42.40
2017-07-04T16:49:14.147Z,42.80
2017-07-04T16:51:42.336Z,41.20
2017-07-04T16:54:10.565Z,41.70
2017-07-04T16:56:38.767Z,41.20
2017-07-04T16:59:06.960Z,41.30
2017-07-04T17:01:35.176Z,41.90
2017-07-04T17:04:03.434Z,42.60
2017-07-04T17:06:31.653Z,42.90
2017-07-04T17:09:00.724Z,42.50
2017-07-04T17:11:28.952Z,42.30
2017-07-04T17:13:57.130Z,42.70
2017-07-04T17:16:25.349Z,43.90
2017-07-04T17:18:53.545Z,42.00
2017-07-04T17:21:21.748Z,42.70
2017-07-04T17:23:49.967Z,42.90
2017-07-04T17:26:18.189Z,43.10
2017-07-04T17:28:46.404Z,43.30
2017-07-04T17:31:14.606Z,43.60
2017-07-04T17:33:42.860Z,43.30
2017-07-04T17:36:12.261Z,43.60
2017-07-04T17:38:40.682Z,43.90
2017-07-04T17:41:09.632Z,44.10
2017-07-04T17:43:39.068Z,44.00
2017-07-04T17:46:07.304Z,44.90
2017-07-04T17:48:35.500Z,44.50
2017-07-04T17:51:03.675Z,44.50
2017-07-04T17:53:31.914Z,45.10
2017-07-04T17:56:00.108Z,45.10
2017-07-04T17:58:28.337Z,45.80
2017-07-04T18:00:57.313Z,46.60
2017-07-04T18:03:25.500Z,46.60
2017-07-04T18:05:54.471Z,46.60
2017-07-04T18:08:25.139Z,46.70
2017-07-04T18:10:53.655Z,46.60
2017-07-04T18:13:21.861Z,46.90
2017-07-04T18:15:50.163Z,47.10
2017-07-04T18:18:22.063Z,47.10
2017-07-04T18:20:50.290Z,47.00
2017-07-04T18:23:19.170Z,47.60
2017-07-04T18:25:47.358Z,47.20
2017-07-04T18:28:15.605Z,47.50
2017-07-04T18:30:44.192Z,48.00
2017-07-04T18:33:12.462Z,48.60
2017-07-04T18:35:40.663Z,48.90
2017-07-04T18:38:08.876Z,49.30
2017-07-04T18:40:37.084Z,49.00
2017-07-04T18:43:05.260Z,49.20
2017-07-04T18:45:33.467Z,49.50
2017-07-04T18:48:01.668Z,49.00
2017-07-04T18:50:30.643Z,49.80
2017-07-04T18:52:58.888Z,49.80
2017-07-04T18:55:27.061Z,49.70
2017-07-04T18:57:55.266Z,49.90
2017-07-04T19:00:23.484Z,49.90
2017-07-04T19:02:52.446Z,51.00
2017-07-04T19:05:20.662Z,50.90
2017-07-04T19:07:49.666Z,51.40
2017-07-04T19:10:17.845Z,51.40
2017-07-04T19:12:46.018Z,50.70
2017-07-04T19:15:14.251Z,51.00
2017-07-04T19:17:42.464Z,51.20
2017-07-04T19:20:10.675Z,51.30
2017-07-04T19:22:38.923Z,51.30
2017-07-04T19:25:07.139Z,51.90
2017-07-04T19:27:35.352Z,52.10
2017-07-04T19:30:03.576Z,52.70
2017-07-04T19:32:31.775Z,52.50
2017-07-04T19:34:59.967Z,52.30
2017-07-04T19:37:28.964Z,52.20
2017-07-04T19:39:57.943Z,52.50
2017-07-04T19:42:26.184Z,52.50
2017-07-04T19:44:54.441Z,52.70
2017-07-04T19:47:23.377Z,53.30
2017-07-04T19:49:51.611Z,53.30
2017-07-04T19:52:19.870Z,53.40
2017-07-04T19:54:48.094Z,53.80
2017-07-04T19:57:16.273Z,54.20
2017-07-04T19:59:44.502Z,54.20
2017-07-04T20:02:12.726Z,54.60
2017-07-04T20:04:40.931Z,54.70
2017-07-04T20:07:09.145Z,54.80
2017-07-04T20:09:37.399Z,55.10
2017-07-04T20:12:10.576Z,55.40
2017-07-04T20:14:38.783Z,55.50
2017-07-04T20:17:07.042Z,55.80
2017-07-04T20:19:35.244Z,56.10
2017-07-04T20:22:04.238Z,56.20
2017-07-04T20:24:33.204Z,56.20
2017-07-04T20:27:01.397Z,56.10
2017-07-04T20:29:29.618Z,56.60
2017-07-04T20:31:58.591Z,56.80
2017-07-04T20:34:26.872Z,56.60
2017-07-04T20:36:55.885Z,56.80
2017-07-04T20:39:24.841Z,57.30
2017-07-04T20:41:53.041Z,57.20
2017-07-04T20:44:22.408Z,57.80
2017-07-04T20:46:50.661Z,57.10
2017-07-04T20:49:19.001Z,57.10
2017-07-04T20:51:47.256Z,57.30
2017-07-04T20:54:15.464Z,56.90
2017-07-04T20:56:43.681Z,56.80
2017-07-04T20:59:11.890Z,57.20
2017-07-04T21:01:40.072Z,57.10
2017-07-04T21:04:09.044Z,57.00
2017-07-04T21:06:37.279Z,57.00
2017-07-04T21:09:05.477Z,57.00
2017-07-04T21:11:33.679Z,56.90
2017-07-04T21:14:01.908Z,57.30
2017-07-04T21:16:30.177Z,57.10
2017-07-04T21:18:58.484Z,57.50
2017-07-04T21:21:26.732Z,58.00
2017-07-04T21:23:54.923Z,58.00
2017-07-04T21:26:23.121Z,57.70
2017-07-04T21:28:51.839Z,57.80
2017-07-04T21:31:20.796Z,57.80
2017-07-04T21:33:49.944Z,57.80
2017-07-04T21:36:18.159Z,57.80
2017-07-04T21:38:46.361Z,57.80
2017-07-04T21:41:15.552Z,57.90
2017-07-04T21:43:43.858Z,57.40
2017-07-04T21:46:12.182Z,57.80
2017-07-04T21:48:40.360Z,57.80
2017-07-04T21:51:08.595Z,58.20
2017-07-04T21:53:37.574Z,58.50
2017-07-04T21:56:06.557Z,58.60
2017-07-04T21:58:34.757Z,58.60
2017-07-04T22:01:03.717Z,58.70
2017-07-04T22:03:31.917Z,58.60
2017-07-04T22:06:00.895Z,58.30
2017-07-04T22:08:29.107Z,58.30
2017-07-04T22:10:57.317Z,58.50
2017-07-04T22:13:25.539Z,58.80
2017-07-04T22:15:54.546Z,59.00
2017-07-04T22:18:22.760Z,58.90
2017-07-04T22:20:51.028Z,59.00
2017-07-04T22:23:19.283Z,59.10
2017-07-04T22:25:47.493Z,59.20
2017-07-04T22:28:15.724Z,59.20
2017-07-04T22:30:43.930Z,59.40
2017-07-04T22:33:12.120Z,59.20
2017-07-04T22:35:40.343Z,59.30
2017-07-04T22:38:08.517Z,59.50
2017-07-04T22:40:37.464Z,59.10
2017-07-04T22:43:05.677Z,59.10
2017-07-04T22:45:34.634Z,59.30
2017-07-04T22:48:02.828Z,59.20
2017-07-04T22:50:31.063Z,59.30
2017-07-04T22:52:59.263Z,59.80
2017-07-04T22:55:27.455Z,59.30
2017-07-04T22:57:55.768Z,59.30
2017-07-04T23:00:23.979Z,59.30
2017-07-04T23:02:52.186Z,59.20
2017-07-04T23:05:20.395Z,59.10
2017-07-04T23:07:48.606Z,59.50
2017-07-04T23:10:16.789Z,59.50
2017-07-04T23:12:45.001Z,59.70
2017-07-04T23:15:13.958Z,60.10
2017-07-04T23:17:42.134Z,60.00
2017-07-04T23:20:10.355Z,59.70
2017-07-04T23:22:39.341Z,60.00
2017-07-04T23:25:08.311Z,60.30
2017-07-04T23:27:36.549Z,60.30
2017-07-04T23:30:04.758Z,60.10
2017-07-04T23:32:32.943Z,60.10
2017-07-04T23:35:01.181Z,60.40
2017-07-04T23:37:29.387Z,61.00
2017-07-04T23:39:57.594Z,60.80
2017-07-04T23:42:25.804Z,60.60
2017-07-04T23:44:53.998Z,60.50
2017-07-04T23:47:22.187Z,60.70
2017-07-04T23:49:50.421Z,60.80
2017-07-04T23:52:18.616Z,61.00
2017-07-04T23:54:46.824Z,60.90
2017-07-04T23:57:15.029Z,60.90
2017-07-04T23:59:43.234Z,61.50
